Terminal Aerodrome Forecast
Issued by NWS

Home | Current Version | Previous Version | Text Only | Print | Product List | Glossary On
Versions: 1 2 3 4 5 6 7 8 9 10 11 12
000
FTUS44 KCRP 311100
TAFLRD
TAF
KLRD 311129Z 3112/0112 12005KT P6SM SCT030 BKN100
     FM311300 05009KT P6SM VCTS SCT025CB OVC060
      TEMPO 3113/3117 03015G30KT 4SM TSRA BR BKN018CB OVC050
     FM311900 05013KT P6SM BKN035 OVC100
     FM010100 04011KT P6SM SCT070=

USA.gov is the U.S. government's official web portal to all federal, state and local government web resources and services.